Time;durP1;ratioP1;P1;durP2;ratioP2;P2;SDS_P1;SDS_P2;PMS_P1;PMS_P2;Temp;Humidity;BMP_temperature;BMP_pressure;BME280_temperature;BME280_humidity;BME280_pressure;Samples;Min_cycle;Max_cycle;Signal;HPM_P1;HPM_P2
2022/09/19 00:01:33;;;;;;;;;;;21.10;40.10;;;;;;492031;240;2191;-51
2022/09/19 00:03:36;;;;;;;;;;;21.10;40.10;;;;;;491748;240;1314;-50
2022/09/19 00:05:37;;;;;;;;;;;21.10;40.10;;;;;;492185;240;1272;-51
2022/09/19 00:07:38;;;;;;;;;;;21.10;40.20;;;;;;492239;240;1428;-51
2022/09/19 00:09:40;;;;;;;;;;;21.10;40.10;;;;;;492202;240;1335;-50
2022/09/19 00:11:41;;;;;;;;;;;21.10;40.10;;;;;;492026;240;1265;-50
2022/09/19 00:13:45;;;;;;;;;;;21.10;40.10;;;;;;492240;240;1230;-50
2022/09/19 00:15:46;;;;;;;;;;;21.10;40.00;;;;;;492261;240;1365;-51
2022/09/19 00:17:47;;;;;;;;;;;21.10;40.00;;;;;;491804;240;1205;-51
2022/09/19 00:19:48;;;;;;;;;;;21.10;40.00;;;;;;491837;240;1393;-50
2022/09/19 00:21:50;;;;;;;;;;;21.10;40.00;;;;;;491845;240;2184;-51
2022/09/19 00:26:10;;;;;;;;;;;21.10;39.90;;;;;;492240;242;1234;-50
2022/09/19 00:28:12;;;;;;;;;;;21.10;40.00;;;;;;491995;240;1310;-51
2022/09/19 00:30:13;;;;;;;;;;;21.10;40.00;;;;;;491797;240;1178;-51
2022/09/19 00:32:15;;;;;;;;;;;21.10;40.00;;;;;;492031;240;1286;-51
2022/09/19 00:34:16;;;;;;;;;;;21.10;39.90;;;;;;492006;240;1587;-50
2022/09/19 00:36:17;;;;;;;;;;;21.10;39.90;;;;;;492239;240;1275;-50
2022/09/19 00:38:18;;;;;;;;;;;21.10;40.00;;;;;;492008;240;1217;-51
2022/09/19 00:40:19;;;;;;;;;;;21.10;39.90;;;;;;492095;240;1222;-51
2022/09/19 00:42:21;;;;;;;;;;;21.10;40.00;;;;;;492091;240;2163;-50
2022/09/19 00:44:22;;;;;;;;;;;21.10;39.90;;;;;;492201;240;1315;-50
2022/09/19 00:46:23;;;;;;;;;;;21.10;39.90;;;;;;491747;240;1263;-50
2022/09/19 00:48:25;;;;;;;;;;;21.00;39.80;;;;;;492201;240;1310;-50
2022/09/19 00:50:26;;;;;;;;;;;21.00;39.90;;;;;;492203;240;1229;-49
2022/09/19 00:52:27;;;;;;;;;;;21.00;40.00;;;;;;491850;240;1585;-51
2022/09/19 00:54:29;;;;;;;;;;;21.00;40.20;;;;;;491737;240;1226;-50
2022/09/19 00:56:30;;;;;;;;;;;21.00;40.30;;;;;;492055;240;1437;-51
2022/09/19 00:58:31;;;;;;;;;;;21.00;40.40;;;;;;492220;240;1170;-51
2022/09/19 01:00:34;;;;;;;;;;;21.00;40.50;;;;;;491746;240;1209;-50
2022/09/19 01:02:34;;;;;;;;;;;21.00;40.70;;;;;;491880;240;2258;-50
2022/09/19 01:04:36;;;;;;;;;;;21.00;40.80;;;;;;491973;240;1233;-51
2022/09/19 01:06:39;;;;;;;;;;;21.00;40.80;;;;;;491764;240;1343;-50
2022/09/19 01:08:38;;;;;;;;;;;20.90;40.80;;;;;;491860;240;1662;-51
2022/09/19 01:10:40;;;;;;;;;;;21.00;40.90;;;;;;491795;240;1281;-51
2022/09/19 01:12:46;;;;;;;;;;;21.00;40.90;;;;;;491738;240;1394;-51
2022/09/19 01:14:43;;;;;;;;;;;21.00;41.00;;;;;;491820;240;2316;-50
2022/09/19 01:16:44;;;;;;;;;;;21.00;41.00;;;;;;492035;240;1273;-51
2022/09/19 01:18:46;;;;;;;;;;;21.00;41.00;;;;;;492170;240;1280;-50
2022/09/19 01:20:47;;;;;;;;;;;21.00;41.10;;;;;;491734;240;2153;-50
2022/09/19 01:22:49;;;;;;;;;;;21.00;41.10;;;;;;492206;240;1271;-51
2022/09/19 01:24:50;;;;;;;;;;;21.00;41.20;;;;;;491947;240;1254;-51
2022/09/19 01:26:52;;;;;;;;;;;20.90;41.20;;;;;;492182;240;1236;-50
2022/09/19 01:28:53;;;;;;;;;;;20.90;41.10;;;;;;492177;240;1261;-51
2022/09/19 01:31:16;;;;;;;;;;;20.90;41.20;;;;;;492100;240;1268;-50
2022/09/19 01:32:56;;;;;;;;;;;21.00;41.30;;;;;;491948;240;1869;-51
2022/09/19 01:35:02;;;;;;;;;;;20.90;41.30;;;;;;491954;240;1212;-50
2022/09/19 01:37:03;;;;;;;;;;;20.90;41.30;;;;;;491761;240;2615;-50
2022/09/19 01:39:01;;;;;;;;;;;20.90;41.30;;;;;;491816;240;2282;-51
2022/09/19 01:41:01;;;;;;;;;;;20.90;41.40;;;;;;491688;240;2184;-50
2022/09/19 01:43:05;;;;;;;;;;;20.90;41.40;;;;;;491767;240;1289;-51
2022/09/19 01:45:04;;;;;;;;;;;20.90;41.40;;;;;;492183;240;2254;-50
2022/09/19 01:47:05;;;;;;;;;;;20.90;41.40;;;;;;492190;240;1271;-51
2022/09/19 01:49:07;;;;;;;;;;;20.90;41.40;;;;;;492122;240;1350;-51
2022/09/19 01:51:10;;;;;;;;;;;20.90;41.50;;;;;;491735;240;1287;-51
2022/09/19 01:53:09;;;;;;;;;;;20.90;41.50;;;;;;491762;240;2556;-51
2022/09/19 01:55:11;;;;;;;;;;;20.90;41.50;;;;;;491758;240;1769;-51
2022/09/19 01:57:12;;;;;;;;;;;20.90;41.60;;;;;;491755;240;1276;-51
2022/09/19 01:59:13;;;;;;;;;;;20.90;41.60;;;;;;492212;240;1291;-51
2022/09/19 02:01:16;;;;;;;;;;;20.90;41.60;;;;;;492183;240;2156;-51
2022/09/19 02:03:16;;;;;;;;;;;20.90;41.60;;;;;;492228;240;2148;-51
2022/09/19 02:05:18;;;;;;;;;;;20.90;41.70;;;;;;491994;240;1227;-51
2022/09/19 02:07:20;;;;;;;;;;;20.90;41.60;;;;;;491797;240;1415;-50
2022/09/19 02:09:20;;;;;;;;;;;20.90;41.70;;;;;;492148;240;1516;-51
2022/09/19 02:11:22;;;;;;;;;;;20.90;41.70;;;;;;492217;240;1231;-51
2022/09/19 02:13:24;;;;;;;;;;;20.90;41.70;;;;;;491975;240;1378;-50
2022/09/19 02:15:26;;;;;;;;;;;20.90;41.70;;;;;;491760;240;2373;-51
2022/09/19 02:17:26;;;;;;;;;;;20.90;41.80;;;;;;491761;240;2531;-51
2022/09/19 02:19:31;;;;;;;;;;;20.90;41.70;;;;;;492243;240;1287;-50
2022/09/19 02:21:28;;;;;;;;;;;20.90;41.80;;;;;;491834;240;2164;-51
2022/09/19 02:23:30;;;;;;;;;;;20.90;41.80;;;;;;492241;240;1280;-51
2022/09/19 02:25:33;;;;;;;;;;;20.90;41.90;;;;;;491817;240;1230;-51
2022/09/19 02:27:35;;;;;;;;;;;20.80;41.90;;;;;;492229;240;2432;-51
2022/09/19 02:29:34;;;;;;;;;;;20.80;42.00;;;;;;492175;240;2260;-50
2022/09/19 02:31:37;;;;;;;;;;;20.80;42.00;;;;;;491915;240;1237;-50
2022/09/19 02:33:37;;;;;;;;;;;20.90;42.00;;;;;;492233;240;2418;-51
2022/09/19 02:35:39;;;;;;;;;;;20.90;42.00;;;;;;492004;240;1324;-52
2022/09/19 02:37:41;;;;;;;;;;;20.90;42.00;;;;;;491764;240;2249;-51
2022/09/19 02:39:41;;;;;;;;;;;20.90;42.00;;;;;;492128;240;1992;-51
2022/09/19 02:41:43;;;;;;;;;;;20.80;42.00;;;;;;492207;240;2185;-51
2022/09/19 02:43:46;;;;;;;;;;;20.90;42.00;;;;;;492219;240;1320;-51
2022/09/19 02:45:45;;;;;;;;;;;20.90;42.00;;;;;;492247;240;2020;-51
2022/09/19 02:47:46;;;;;;;;;;;20.90;42.10;;;;;;492214;240;1221;-51
2022/09/19 02:49:48;;;;;;;;;;;20.90;42.10;;;;;;491722;240;1246;-51
2022/09/19 02:51:49;;;;;;;;;;;20.80;42.10;;;;;;491775;240;1280;-50
2022/09/19 02:53:50;;;;;;;;;;;20.80;42.20;;;;;;492224;240;1321;-51
2022/09/19 02:55:52;;;;;;;;;;;20.80;42.10;;;;;;491754;240;1277;-51
2022/09/19 02:57:54;;;;;;;;;;;20.80;42.20;;;;;;491820;240;1554;-51
2022/09/19 02:59:58;;;;;;;;;;;20.80;42.20;;;;;;491737;240;2329;-50
2022/09/19 03:01:56;;;;;;;;;;;20.80;42.20;;;;;;491807;240;2187;-50
2022/09/19 03:04:12;;;;;;;;;;;20.80;42.20;;;;;;491763;240;1341;-51
2022/09/19 03:06:14;;;;;;;;;;;20.90;42.20;;;;;;491736;240;1217;-50
2022/09/19 03:08:15;;;;;;;;;;;20.90;42.30;;;;;;492219;240;1302;-50
2022/09/19 03:10:16;;;;;;;;;;;20.80;42.20;;;;;;491899;240;1333;-50
2022/09/19 03:12:18;;;;;;;;;;;20.90;42.20;;;;;;492198;240;1381;-50
2022/09/19 03:14:20;;;;;;;;;;;20.90;42.30;;;;;;492007;240;1191;-51
2022/09/19 03:16:21;;;;;;;;;;;20.80;42.30;;;;;;492217;240;1249;-51
2022/09/19 03:18:22;;;;;;;;;;;20.80;42.30;;;;;;491888;240;1372;-51
2022/09/19 03:20:24;;;;;;;;;;;20.80;42.30;;;;;;491948;240;1477;-51
2022/09/19 03:22:26;;;;;;;;;;;20.80;42.30;;;;;;492175;240;2184;-51
2022/09/19 03:24:27;;;;;;;;;;;20.80;42.30;;;;;;492191;240;1266;-51
2022/09/19 03:26:30;;;;;;;;;;;20.80;42.30;;;;;;492077;240;1299;-51
2022/09/19 03:28:30;;;;;;;;;;;20.80;42.40;;;;;;491765;240;1360;-51
2022/09/19 03:30:31;;;;;;;;;;;20.80;42.40;;;;;;492195;240;1305;-51
2022/09/19 03:32:34;;;;;;;;;;;20.80;42.40;;;;;;492206;240;1348;-50
2022/09/19 03:34:34;;;;;;;;;;;20.80;42.40;;;;;;491740;240;1644;-50
2022/09/19 03:36:35;;;;;;;;;;;20.80;42.40;;;;;;491937;240;1367;-51
2022/09/19 03:38:36;;;;;;;;;;;20.90;42.40;;;;;;492026;240;1268;-50
2022/09/19 03:40:38;;;;;;;;;;;20.80;42.40;;;;;;492189;240;1677;-51
2022/09/19 03:42:39;;;;;;;;;;;20.80;42.50;;;;;;491741;240;2381;-51
2022/09/19 03:44:41;;;;;;;;;;;20.80;42.50;;;;;;492224;240;1710;-51
2022/09/19 03:46:43;;;;;;;;;;;20.80;42.50;;;;;;492224;240;1295;-51
2022/09/19 03:48:44;;;;;;;;;;;20.80;42.50;;;;;;492089;240;2254;-51
2022/09/19 03:50:45;;;;;;;;;;;20.80;42.50;;;;;;492031;240;1319;-50
2022/09/19 03:52:47;;;;;;;;;;;20.80;42.50;;;;;;491783;240;1359;-51
2022/09/19 03:54:48;;;;;;;;;;;20.80;42.50;;;;;;491769;240;1274;-51
2022/09/19 03:56:50;;;;;;;;;;;20.80;42.60;;;;;;492143;240;1154;-50
2022/09/19 03:58:51;;;;;;;;;;;20.80;42.60;;;;;;492204;240;1270;-51
2022/09/19 04:00:53;;;;;;;;;;;20.80;42.60;;;;;;492214;240;1341;-51
2022/09/19 04:02:53;;;;;;;;;;;20.80;42.70;;;;;;491757;240;2477;-51
2022/09/19 04:04:55;;;;;;;;;;;20.80;42.60;;;;;;492226;240;1274;-50
2022/09/19 04:06:56;;;;;;;;;;;20.80;42.60;;;;;;491948;240;1131;-50
2022/09/19 04:08:59;;;;;;;;;;;20.80;42.60;;;;;;491993;240;1258;-50
2022/09/19 04:10:59;;;;;;;;;;;20.90;42.40;;;;;;492069;240;1408;-50
2022/09/19 04:13:00;;;;;;;;;;;21.10;42.10;;;;;;492198;240;1265;-51
2022/09/19 04:15:02;;;;;;;;;;;21.20;41.90;;;;;;492203;240;1337;-50
2022/09/19 04:17:03;;;;;;;;;;;21.30;41.60;;;;;;491715;240;1254;-51
2022/09/19 04:19:10;;;;;;;;;;;21.40;41.50;;;;;;492207;240;1296;-50
2022/09/19 04:21:06;;;;;;;;;;;21.50;41.30;;;;;;491800;240;2384;-51
2022/09/19 04:23:07;;;;;;;;;;;21.60;41.20;;;;;;492080;240;2144;-51
2022/09/19 04:25:10;;;;;;;;;;;21.70;41.10;;;;;;491730;240;1360;-51
2022/09/19 04:27:12;;;;;;;;;;;21.70;40.90;;;;;;491720;240;1619;-51
2022/09/19 04:29:12;;;;;;;;;;;21.70;40.80;;;;;;491755;240;2306;-50
2022/09/19 04:31:13;;;;;;;;;;;21.80;40.80;;;;;;492213;240;1231;-50
2022/09/19 04:33:14;;;;;;;;;;;21.80;40.70;;;;;;492221;240;1252;-51
2022/09/19 04:35:16;;;;;;;;;;;21.90;40.60;;;;;;492163;240;1241;-51
2022/09/19 04:37:17;;;;;;;;;;;21.90;40.60;;;;;;491910;240;1404;-51
2022/09/19 04:39:18;;;;;;;;;;;21.90;40.50;;;;;;491708;240;1500;-51
2022/09/19 04:41:20;;;;;;;;;;;21.90;40.40;;;;;;491549;240;1313;-51
2022/09/19 04:43:23;;;;;;;;;;;22.00;40.40;;;;;;492070;240;2199;-51
2022/09/19 04:45:22;;;;;;;;;;;22.00;40.40;;;;;;491661;240;2255;-51
2022/09/19 04:47:24;;;;;;;;;;;22.10;40.40;;;;;;492143;240;1231;-50
2022/09/19 04:49:34;;;;;;;;;;;22.10;40.30;;;;;;491635;240;1255;-50
2022/09/19 04:51:30;;;;;;;;;;;22.10;40.30;;;;;;491719;240;2445;-51
2022/09/19 04:53:30;;;;;;;;;;;22.10;40.30;;;;;;492136;240;1802;-51
2022/09/19 04:55:30;;;;;;;;;;;22.10;40.30;;;;;;492094;240;1959;-51
2022/09/19 04:57:31;;;;;;;;;;;22.20;40.20;;;;;;492145;240;1257;-51
2022/09/19 04:59:33;;;;;;;;;;;22.20;40.20;;;;;;492144;240;1344;-51
2022/09/19 05:01:34;;;;;;;;;;;22.20;40.20;;;;;;492154;240;1273;-51
2022/09/19 05:03:36;;;;;;;;;;;22.20;40.10;;;;;;491865;240;2153;-50
2022/09/19 05:05:37;;;;;;;;;;;22.20;40.10;;;;;;492008;240;1363;-51
2022/09/19 05:07:39;;;;;;;;;;;22.30;40.20;;;;;;491931;240;1333;-51
2022/09/19 05:09:41;;;;;;;;;;;22.30;40.10;;;;;;491668;240;1395;-51
2022/09/19 05:11:42;;;;;;;;;;;22.30;40.10;;;;;;491704;240;1444;-50
2022/09/19 05:13:42;;;;;;;;;;;22.30;40.00;;;;;;491649;240;1507;-51
2022/09/19 05:15:43;;;;;;;;;;;22.40;40.10;;;;;;491743;240;1328;-50
2022/09/19 05:17:46;;;;;;;;;;;22.40;40.10;;;;;;492213;240;1319;-50
2022/09/19 05:19:46;;;;;;;;;;;22.40;40.00;;;;;;492178;240;1543;-50
2022/09/19 05:21:48;;;;;;;;;;;22.40;40.00;;;;;;492147;240;1468;-51
2022/09/19 05:23:49;;;;;;;;;;;22.40;40.00;;;;;;491760;240;2148;-51
2022/09/19 05:25:53;;;;;;;;;;;22.40;40.00;;;;;;491932;240;1241;-51
2022/09/19 05:27:52;;;;;;;;;;;22.50;40.00;;;;;;491862;240;1517;-51
2022/09/19 05:29:53;;;;;;;;;;;22.50;40.00;;;;;;491908;240;2313;-51
2022/09/19 05:32:03;;;;;;;;;;;22.50;40.00;;;;;;491619;240;1184;-52
2022/09/19 05:33:56;;;;;;;;;;;22.50;40.00;;;;;;492168;240;2261;-51
2022/09/19 05:35:59;;;;;;;;;;;22.50;39.90;;;;;;491765;240;1170;-50
2022/09/19 05:37:58;;;;;;;;;;;22.50;39.90;;;;;;491688;240;1739;-51
2022/09/19 05:40:00;;;;;;;;;;;22.50;39.90;;;;;;491976;240;1278;-51
2022/09/19 05:42:01;;;;;;;;;;;22.60;40.00;;;;;;491705;240;1250;-51
2022/09/19 05:44:03;;;;;;;;;;;22.60;40.00;;;;;;492058;240;2192;-51
2022/09/19 05:46:04;;;;;;;;;;;22.60;39.90;;;;;;492116;240;1963;-51
2022/09/19 05:48:05;;;;;;;;;;;22.60;39.90;;;;;;492147;240;1974;-51
2022/09/19 05:50:08;;;;;;;;;;;22.60;39.90;;;;;;491644;240;1387;-52
2022/09/19 05:54:29;;;;;;;;;;;22.60;39.90;;;;;;491588;240;1279;-51
2022/09/19 05:56:31;;;;;;;;;;;22.60;39.90;;;;;;491839;240;1233;-51
2022/09/19 05:58:33;;;;;;;;;;;22.60;39.90;;;;;;492107;240;1202;-52
2022/09/19 06:00:34;;;;;;;;;;;22.60;39.90;;;;;;491935;240;2125;-51
2022/09/19 06:02:35;;;;;;;;;;;22.60;39.90;;;;;;491563;240;2141;-51
2022/09/19 06:04:36;;;;;;;;;;;22.70;39.90;;;;;;491526;240;1255;-51
2022/09/19 06:06:38;;;;;;;;;;;22.70;39.90;;;;;;491530;240;1239;-51
2022/09/19 06:08:39;;;;;;;;;;;22.60;39.90;;;;;;491762;240;1290;-51
2022/09/19 06:10:40;;;;;;;;;;;22.60;39.90;;;;;;491566;240;1235;-51
2022/09/19 06:12:41;;;;;;;;;;;22.70;39.90;;;;;;491519;240;1239;-50
2022/09/19 06:14:43;;;;;;;;;;;22.60;39.90;;;;;;492032;240;1294;-51
2022/09/19 06:16:44;;;;;;;;;;;22.70;40.00;;;;;;492052;240;1270;-51
2022/09/19 06:18:45;;;;;;;;;;;22.70;40.00;;;;;;491787;240;1267;-51
2022/09/19 06:20:47;;;;;;;;;;;22.70;40.00;;;;;;491640;240;1227;-51
2022/09/19 06:22:49;;;;;;;;;;;22.70;40.00;;;;;;491448;240;2189;-52
2022/09/19 06:24:49;;;;;;;;;;;22.70;40.00;;;;;;492056;240;2053;-51
2022/09/19 06:26:53;;;;;;;;;;;22.70;39.90;;;;;;492063;240;1179;-52
2022/09/19 06:28:52;;;;;;;;;;;22.70;39.90;;;;;;492020;240;1759;-51
2022/09/19 06:30:53;;;;;;;;;;;22.70;39.90;;;;;;492020;240;1197;-52
2022/09/19 06:32:55;;;;;;;;;;;22.70;39.90;;;;;;491514;240;1318;-51
2022/09/19 06:34:56;;;;;;;;;;;22.70;39.90;;;;;;491609;240;1254;-51
2022/09/19 06:36:57;;;;;;;;;;;22.70;39.80;;;;;;491268;240;1269;-50
2022/09/19 06:38:59;;;;;;;;;;;22.70;39.80;;;;;;491533;240;1238;-51
2022/09/19 06:41:00;;;;;;;;;;;22.70;39.80;;;;;;491791;240;2901;-51
2022/09/19 06:43:01;;;;;;;;;;;22.80;39.80;;;;;;491572;240;2176;-51
2022/09/19 06:45:05;;;;;;;;;;;22.80;39.80;;;;;;491587;240;1376;-51
2022/09/19 06:47:05;;;;;;;;;;;22.80;39.80;;;;;;491297;240;2596;-51
2022/09/19 06:49:07;;;;;;;;;;;22.80;39.80;;;;;;491906;240;1203;-51
2022/09/19 06:51:08;;;;;;;;;;;22.80;39.70;;;;;;491555;240;1256;-51
2022/09/19 06:53:09;;;;;;;;;;;22.80;39.70;;;;;;491556;240;1223;-51
2022/09/19 06:55:10;;;;;;;;;;;22.80;39.70;;;;;;491975;240;1316;-51
2022/09/19 06:57:12;;;;;;;;;;;22.80;39.70;;;;;;492023;240;1320;-51
2022/09/19 06:59:13;;;;;;;;;;;22.80;39.70;;;;;;491975;240;1585;-50
2022/09/19 07:01:15;;;;;;;;;;;22.80;39.60;;;;;;491587;240;1134;-51
2022/09/19 07:03:16;;;;;;;;;;;22.80;39.70;;;;;;491598;240;2240;-51
2022/09/19 07:05:17;;;;;;;;;;;22.80;39.70;;;;;;492077;240;1249;-52
2022/09/19 07:07:19;;;;;;;;;;;22.80;39.70;;;;;;491622;240;1269;-51
2022/09/19 07:09:20;;;;;;;;;;;22.90;39.70;;;;;;491536;240;1271;-52
2022/09/19 07:11:21;;;;;;;;;;;22.90;39.70;;;;;;491737;240;1200;-51
2022/09/19 07:13:23;;;;;;;;;;;22.90;39.60;;;;;;491716;240;1185;-51
2022/09/19 07:15:24;;;;;;;;;;;22.90;39.60;;;;;;491838;240;1283;-51
2022/09/19 07:17:25;;;;;;;;;;;22.90;39.70;;;;;;491563;240;1249;-52
2022/09/19 07:19:26;;;;;;;;;;;22.90;39.60;;;;;;491700;240;1206;-51
2022/09/19 07:21:28;;;;;;;;;;;22.90;39.60;;;;;;491294;240;1364;-51
2022/09/19 07:23:29;;;;;;;;;;;22.90;39.60;;;;;;491586;240;2183;-51
2022/09/19 07:25:31;;;;;;;;;;;22.90;39.60;;;;;;491433;240;1166;-51
2022/09/19 07:27:32;;;;;;;;;;;23.00;39.60;;;;;;491273;240;1618;-51
2022/09/19 07:29:33;;;;;;;;;;;23.00;39.50;;;;;;491412;240;1236;-51
2022/09/19 07:31:34;;;;;;;;;;;22.90;39.80;;;;;;491566;240;1359;-51
2022/09/19 07:33:36;;;;;;;;;;;22.70;40.00;;;;;;491608;240;1305;-51
2022/09/19 07:35:37;;;;;;;;;;;22.50;40.40;;;;;;491803;240;1179;-51
2022/09/19 07:37:39;;;;;;;;;;;22.40;40.70;;;;;;491289;240;1257;-51
2022/09/19 07:39:40;;;;;;;;;;;22.30;41.00;;;;;;491349;240;2049;-52
2022/09/19 07:41:41;;;;;;;;;;;22.10;41.10;;;;;;491806;240;1286;-50
2022/09/19 07:43:42;;;;;;;;;;;22.10;41.40;;;;;;491682;240;2207;-50
2022/09/19 07:45:44;;;;;;;;;;;22.00;41.50;;;;;;491315;240;1235;-51
2022/09/19 07:47:45;;;;;;;;;;;21.90;41.60;;;;;;491441;240;1289;-51
2022/09/19 07:49:47;;;;;;;;;;;21.90;41.70;;;;;;491682;240;1314;-51
2022/09/19 07:51:48;;;;;;;;;;;21.90;41.80;;;;;;491570;240;1231;-51
2022/09/19 07:53:50;;;;;;;;;;;21.80;41.90;;;;;;491690;240;1252;-51
2022/09/19 07:55:51;;;;;;;;;;;21.80;42.00;;;;;;491647;240;1259;-51
2022/09/19 07:57:52;;;;;;;;;;;21.70;42.00;;;;;;491220;240;1253;-52
2022/09/19 07:59:54;;;;;;;;;;;21.70;42.10;;;;;;491451;240;1283;-51
2022/09/19 08:01:55;;;;;;;;;;;21.70;42.20;;;;;;491677;240;1323;-50
2022/09/19 08:03:56;;;;;;;;;;;21.70;42.20;;;;;;491507;240;2145;-52
2022/09/19 08:05:58;;;;;;;;;;;21.70;42.20;;;;;;491373;240;1652;-51
2022/09/19 08:07:59;;;;;;;;;;;21.60;42.30;;;;;;491524;240;1276;-52
2022/09/19 08:10:01;;;;;;;;;;;21.60;42.30;;;;;;491416;240;1317;-51
2022/09/19 08:12:02;;;;;;;;;;;21.60;42.30;;;;;;491906;240;1189;-51
2022/09/19 08:14:03;;;;;;;;;;;21.60;42.40;;;;;;491438;240;1254;-51
2022/09/19 08:16:06;;;;;;;;;;;21.50;42.40;;;;;;491848;240;1204;-51
2022/09/19 08:18:06;;;;;;;;;;;21.50;42.50;;;;;;491402;240;1663;-52
2022/09/19 08:20:07;;;;;;;;;;;21.50;42.50;;;;;;491315;240;1314;-50
2022/09/19 08:22:09;;;;;;;;;;;21.50;42.50;;;;;;491341;240;1227;-50
2022/09/19 08:24:10;;;;;;;;;;;21.50;42.50;;;;;;491273;240;2188;-52
2022/09/19 08:26:11;;;;;;;;;;;21.40;42.50;;;;;;491511;240;1190;-50
2022/09/19 08:28:13;;;;;;;;;;;21.40;42.60;;;;;;491524;240;1212;-51
2022/09/19 08:30:14;;;;;;;;;;;21.40;42.60;;;;;;491780;240;1340;-51
2022/09/19 08:32:15;;;;;;;;;;;21.40;42.70;;;;;;491608;240;1437;-50
2022/09/19 08:34:17;;;;;;;;;;;21.40;42.70;;;;;;491419;240;1345;-51
2022/09/19 08:36:18;;;;;;;;;;;21.30;42.60;;;;;;491462;240;1208;-51
2022/09/19 08:38:19;;;;;;;;;;;21.40;42.70;;;;;;491431;240;1225;-52
2022/09/19 08:40:25;;;;;;;;;;;21.40;42.70;;;;;;491365;240;1325;-51
2022/09/19 08:42:22;;;;;;;;;;;21.30;42.60;;;;;;491425;240;2299;-50
2022/09/19 08:44:23;;;;;;;;;;;21.30;42.80;;;;;;491516;240;2152;-51
2022/09/19 08:46:25;;;;;;;;;;;21.30;42.80;;;;;;491776;240;1220;-52
2022/09/19 08:48:27;;;;;;;;;;;21.30;42.80;;;;;;491774;240;1164;-51
2022/09/19 08:50:28;;;;;;;;;;;21.30;42.80;;;;;;491514;240;1405;-51
2022/09/19 08:52:29;;;;;;;;;;;21.20;42.80;;;;;;491828;240;1278;-51
2022/09/19 08:54:30;;;;;;;;;;;21.30;42.90;;;;;;491738;240;1262;-51
2022/09/19 08:56:32;;;;;;;;;;;21.30;42.90;;;;;;491627;240;1195;-51
2022/09/19 08:58:34;;;;;;;;;;;21.20;42.90;;;;;;491537;240;1237;-51
2022/09/19 09:00:35;;;;;;;;;;;21.20;42.90;;;;;;491647;240;2236;-51
2022/09/19 09:02:36;;;;;;;;;;;21.30;42.90;;;;;;491339;240;2644;-50
2022/09/19 09:04:37;;;;;;;;;;;21.30;42.90;;;;;;491763;240;2152;-50
2022/09/19 09:06:39;;;;;;;;;;;21.30;42.90;;;;;;491636;240;1226;-50
2022/09/19 09:08:40;;;;;;;;;;;21.30;42.90;;;;;;491491;240;1202;-51
2022/09/19 09:10:42;;;;;;;;;;;21.20;42.80;;;;;;491390;240;1410;-51
2022/09/19 09:12:44;;;;;;;;;;;21.30;42.90;;;;;;491629;240;1131;-51
2022/09/19 09:14:46;;;;;;;;;;;21.20;42.90;;;;;;491431;240;1434;-51
2022/09/19 09:16:46;;;;;;;;;;;21.20;43.00;;;;;;491699;240;2127;-51
2022/09/19 09:18:47;;;;;;;;;;;21.20;42.90;;;;;;491464;240;1191;-50
2022/09/19 09:20:48;;;;;;;;;;;21.30;42.90;;;;;;491999;240;1168;-51
2022/09/19 09:22:50;;;;;;;;;;;21.30;42.90;;;;;;491431;240;1379;-50
2022/09/19 09:24:51;;;;;;;;;;;21.20;42.90;;;;;;491491;240;2168;-52
2022/09/19 09:26:53;;;;;;;;;;;21.30;43.00;;;;;;491994;240;1138;-50
2022/09/19 09:28:55;;;;;;;;;;;21.30;42.90;;;;;;491496;240;1204;-50
2022/09/19 09:30:55;;;;;;;;;;;21.20;42.90;;;;;;491480;240;2225;-51
2022/09/19 09:32:57;;;;;;;;;;;21.30;43.00;;;;;;491395;240;1238;-51
2022/09/19 09:34:58;;;;;;;;;;;21.20;42.90;;;;;;491357;240;2373;-51
2022/09/19 09:36:59;;;;;;;;;;;21.20;42.90;;;;;;491308;240;1309;-52
2022/09/19 09:39:02;;;;;;;;;;;21.20;42.90;;;;;;491453;240;1218;-50
2022/09/19 09:43:23;;;;;;;;;;;21.20;42.90;;;;;;491399;242;1182;-50
2022/09/19 09:45:22;;;;;;;;;;;21.20;43.00;;;;;;491422;240;2191;-51
2022/09/19 09:47:24;;;;;;;;;;;21.20;43.00;;;;;;491440;240;1272;-51
2022/09/19 09:49:27;;;;;;;;;;;21.20;43.00;;;;;;491200;240;1175;-51
2022/09/19 09:51:28;;;;;;;;;;;21.30;43.00;;;;;;491294;240;2120;-51
2022/09/19 09:53:28;;;;;;;;;;;21.20;43.00;;;;;;491422;240;1405;-50
2022/09/19 09:57:48;;;;;;;;;;;21.20;43.10;;;;;;491346;242;1297;-51
2022/09/19 10:04:29;;;;;;;;;;;21.30;43.10;;;;;;491421;242;2165;-50
2022/09/19 10:06:29;;;;;;;;;;;21.30;43.20;;;;;;491202;240;1432;-50
2022/09/19 10:08:31;;;;;;;;;;;21.30;43.10;;;;;;491418;240;1250;-51
2022/09/19 10:10:32;;;;;;;;;;;21.30;43.00;;;;;;491453;240;1279;-50
2022/09/19 10:12:33;;;;;;;;;;;21.30;42.90;;;;;;491514;240;1323;-51
2022/09/19 10:14:35;;;;;;;;;;;21.30;42.80;;;;;;491597;240;1355;-51
2022/09/19 10:16:36;;;;;;;;;;;21.30;42.70;;;;;;491454;240;1191;-51
2022/09/19 10:18:37;;;;;;;;;;;21.30;42.60;;;;;;491728;240;1161;-51
2022/09/19 10:20:39;;;;;;;;;;;21.30;42.60;;;;;;491819;240;1225;-50
2022/09/19 10:22:40;;;;;;;;;;;21.30;42.50;;;;;;491752;240;1294;-50
2022/09/19 10:24:42;;;;;;;;;;;21.30;42.50;;;;;;491483;240;2180;-51
2022/09/19 10:26:43;;;;;;;;;;;21.30;42.50;;;;;;491519;240;1273;-51
2022/09/19 10:28:48;;;;;;;;;;;21.30;42.50;;;;;;491303;240;1210;-51
2022/09/19 10:30:46;;;;;;;;;;;21.30;42.40;;;;;;491621;240;1239;-51
2022/09/19 10:32:47;;;;;;;;;;;21.30;42.40;;;;;;491199;240;1199;-51
2022/09/19 10:34:50;;;;;;;;;;;21.30;42.40;;;;;;491336;240;1212;-51
2022/09/19 10:36:51;;;;;;;;;;;21.30;42.30;;;;;;491200;240;2633;-51
2022/09/19 10:38:53;;;;;;;;;;;21.30;42.30;;;;;;491445;240;2526;-51
2022/09/19 10:40:55;;;;;;;;;;;21.30;42.30;;;;;;491311;240;1460;-51
2022/09/19 10:42:56;;;;;;;;;;;21.30;42.20;;;;;;491305;240;2104;-51
2022/09/19 10:44:58;;;;;;;;;;;21.30;42.20;;;;;;491474;240;2192;-51
2022/09/19 10:46:58;;;;;;;;;;;21.40;42.20;;;;;;491453;240;1903;-50
2022/09/19 10:49:00;;;;;;;;;;;21.40;42.10;;;;;;491382;240;1271;-50
2022/09/19 10:51:02;;;;;;;;;;;21.30;42.00;;;;;;491367;240;1211;-51
2022/09/19 10:53:03;;;;;;;;;;;21.40;42.10;;;;;;491467;240;1261;-50
2022/09/19 10:55:09;;;;;;;;;;;21.30;42.00;;;;;;491226;240;1515;-51
2022/09/19 10:57:06;;;;;;;;;;;21.30;42.00;;;;;;491274;240;2094;-51
2022/09/19 10:59:08;;;;;;;;;;;21.30;41.90;;;;;;491059;240;1303;-50
2022/09/19 11:01:09;;;;;;;;;;;21.30;41.90;;;;;;491303;240;1202;-51
2022/09/19 11:03:11;;;;;;;;;;;21.30;41.90;;;;;;491389;240;1239;-51
2022/09/19 11:05:12;;;;;;;;;;;21.30;41.90;;;;;;491704;240;2144;-51
2022/09/19 11:07:14;;;;;;;;;;;21.30;41.80;;;;;;491431;240;1184;-50
2022/09/19 11:09:15;;;;;;;;;;;21.40;41.80;;;;;;491410;240;1324;-51
2022/09/19 11:11:17;;;;;;;;;;;21.40;41.80;;;;;;491832;240;1473;-51
2022/09/19 11:13:20;;;;;;;;;;;21.40;41.80;;;;;;491555;240;1173;-50
2022/09/19 11:15:20;;;;;;;;;;;21.40;41.80;;;;;;491498;240;1456;-50
2022/09/19 11:17:22;;;;;;;;;;;21.40;41.70;;;;;;491491;240;1334;-50
2022/09/19 11:19:26;;;;;;;;;;;21.30;41.60;;;;;;491466;240;1881;-50
2022/09/19 11:21:30;;;;;;;;;;;21.40;41.70;;;;;;491441;240;2365;-51
2022/09/19 11:23:28;;;;;;;;;;;21.30;41.60;;;;;;491430;240;2165;-51
2022/09/19 11:25:26;;;;;;;;;;;21.30;41.50;;;;;;491418;240;2500;-51
2022/09/19 11:27:28;;;;;;;;;;;21.30;41.50;;;;;;491247;240;1212;-51
2022/09/19 11:29:29;;;;;;;;;;;21.40;41.60;;;;;;491765;240;1222;-51
2022/09/19 11:31:30;;;;;;;;;;;21.40;41.50;;;;;;491494;240;1250;-50
2022/09/19 11:33:38;;;;;;;;;;;21.40;41.50;;;;;;491313;240;1211;-50
2022/09/19 11:35:35;;;;;;;;;;;21.40;41.40;;;;;;491800;240;2108;-50
2022/09/19 11:37:41;;;;;;;;;;;21.40;41.50;;;;;;491648;240;1967;-51
2022/09/19 11:39:37;;;;;;;;;;;21.40;41.40;;;;;;491593;240;1883;-51
2022/09/19 11:41:38;;;;;;;;;;;21.30;41.40;;;;;;491565;240;2006;-51
2022/09/19 11:43:44;;;;;;;;;;;21.30;41.40;;;;;;491292;240;1333;-51
2022/09/19 11:45:40;;;;;;;;;;;21.30;41.60;;;;;;491526;240;2149;-51
2022/09/19 11:47:44;;;;;;;;;;;21.30;41.60;;;;;;491701;240;1216;-50
2022/09/19 11:49:46;;;;;;;;;;;21.30;41.50;;;;;;491438;240;1906;-51
2022/09/19 11:51:47;;;;;;;;;;;21.30;41.50;;;;;;491469;240;1408;-51
2022/09/19 11:53:48;;;;;;;;;;;21.40;41.50;;;;;;491581;240;2064;-50
2022/09/19 11:55:48;;;;;;;;;;;21.30;41.50;;;;;;491537;240;1823;-50
2022/09/19 11:57:50;;;;;;;;;;;21.30;41.40;;;;;;491399;240;1231;-50
2022/09/19 11:59:51;;;;;;;;;;;21.30;41.40;;;;;;491357;240;1157;-51
2022/09/19 12:01:52;;;;;;;;;;;21.30;41.40;;;;;;491309;240;1662;-52
2022/09/19 12:03:56;;;;;;;;;;;21.30;41.50;;;;;;491877;240;1179;-50
2022/09/19 12:05:56;;;;;;;;;;;21.30;41.40;;;;;;491537;240;2184;-51
2022/09/19 12:07:57;;;;;;;;;;;21.30;41.40;;;;;;491382;240;1879;-51
2022/09/19 12:09:58;;;;;;;;;;;21.30;41.30;;;;;;491266;240;1262;-51
2022/09/19 12:11:59;;;;;;;;;;;21.30;41.20;;;;;;491442;240;1173;-51